createdAt,value
2022-08-26T00:00:59.011Z,5.40
2022-08-26T00:03:26.457Z,6.07
2022-08-26T00:05:54.414Z,5.68
2022-08-26T00:08:21.263Z,4.60
2022-08-26T00:10:47.939Z,4.82
2022-08-26T00:13:15.642Z,5.78
2022-08-26T00:15:46.987Z,5.82
2022-08-26T00:18:21.887Z,6.53
2022-08-26T00:20:49.506Z,4.50
2022-08-26T00:23:17.736Z,8.70
2022-08-26T00:25:44.332Z,4.65
2022-08-26T00:28:11.093Z,5.43
2022-08-26T00:30:37.962Z,5.90
2022-08-26T00:33:05.973Z,5.20
2022-08-26T00:35:33.990Z,4.82
2022-08-26T00:38:01.294Z,4.93
2022-08-26T00:40:36.363Z,5.12
2022-08-26T00:43:03.220Z,4.20
2022-08-26T00:45:54.847Z,4.05
2022-08-26T00:48:22.978Z,4.75
2022-08-26T00:51:04.096Z,6.43
2022-08-26T00:53:34.668Z,7.18
2022-08-26T00:56:08.321Z,5.50
2022-08-26T00:58:35.130Z,5.47
2022-08-26T01:01:01.835Z,4.97
2022-08-26T01:03:29.084Z,4.90
2022-08-26T01:05:57.372Z,4.78
2022-08-26T01:08:24.592Z,3.92
2022-08-26T01:10:52.350Z,7.45
2022-08-26T01:13:22.398Z,7.10
2022-08-26T01:15:52.475Z,5.43
2022-08-26T01:18:19.972Z,6.50
2022-08-26T01:20:58.788Z,7.68
2022-08-26T01:23:29.544Z,4.68
2022-08-26T01:25:59.754Z,5.53
2022-08-26T01:28:28.245Z,3.75
2022-08-26T01:30:56.011Z,4.90
2022-08-26T01:33:26.719Z,5.10
2022-08-26T01:35:53.470Z,4.05
2022-08-26T01:38:20.070Z,7.60
2022-08-26T01:40:47.054Z,4.05
2022-08-26T01:43:19.729Z,5.80
2022-08-26T01:45:47.483Z,4.32
2022-08-26T01:48:16.899Z,4.87
2022-08-26T01:50:43.470Z,7.10
2022-08-26T01:53:11.282Z,5.82
2022-08-26T01:55:39.400Z,4.32
2022-08-26T01:58:15.409Z,6.95
2022-08-26T02:00:45.359Z,5.53
2022-08-26T02:03:18.046Z,6.12
2022-08-26T02:05:46.427Z,4.47
2022-08-26T02:08:15.618Z,5.93
2022-08-26T02:10:51.156Z,5.47
2022-08-26T02:13:21.640Z,5.47
2022-08-26T02:15:49.183Z,5.57
2022-08-26T02:18:16.547Z,7.05
2022-08-26T02:20:43.134Z,5.30
2022-08-26T02:23:09.724Z,5.40
2022-08-26T02:26:08.714Z,4.75
2022-08-26T02:29:09.985Z,7.05
2022-08-26T02:31:36.985Z,5.50
2022-08-26T02:34:12.286Z,5.45
2022-08-26T02:36:39.219Z,4.97
2022-08-26T02:39:06.453Z,3.92
2022-08-26T02:41:33.572Z,6.57
2022-08-26T02:44:00.201Z,4.65
2022-08-26T02:46:29.750Z,4.25
2022-08-26T02:48:57.574Z,6.70
2022-08-26T02:51:24.564Z,6.00
2022-08-26T02:53:51.158Z,5.03
2022-08-26T02:56:17.734Z,6.45
2022-08-26T02:58:44.353Z,5.87
2022-08-26T03:01:29.984Z,4.75
2022-08-26T03:03:57.469Z,5.97
2022-08-26T03:06:24.725Z,5.78
2022-08-26T03:08:52.162Z,3.70
2022-08-26T03:11:18.913Z,6.28
2022-08-26T03:13:45.905Z,4.40
2022-08-26T03:16:13.430Z,8.43
2022-08-26T03:18:40.188Z,7.53
2022-08-26T03:21:14.079Z,5.00
2022-08-26T03:23:41.336Z,6.45
2022-08-26T03:26:10.919Z,5.55
2022-08-26T03:28:57.628Z,7.85
2022-08-26T03:31:25.044Z,5.70
2022-08-26T03:33:52.134Z,5.28
2022-08-26T03:36:19.160Z,6.12
2022-08-26T03:38:45.853Z,5.37
2022-08-26T03:41:12.463Z,6.60
2022-08-26T03:43:40.387Z,5.55
2022-08-26T03:46:11.122Z,7.05
2022-08-26T03:48:38.676Z,8.25
2022-08-26T03:51:05.736Z,6.82
2022-08-26T03:53:32.844Z,6.03
2022-08-26T03:56:03.212Z,5.50
2022-08-26T03:58:32.107Z,7.85
2022-08-26T04:00:58.761Z,6.05
2022-08-26T04:03:44.871Z,7.68
2022-08-26T04:06:11.791Z,9.23
2022-08-26T04:08:38.386Z,4.95
2022-08-26T04:11:05.473Z,6.18
2022-08-26T04:13:32.412Z,6.70
2022-08-26T04:15:59.301Z,4.35
2022-08-26T04:18:31.444Z,4.57
2022-08-26T04:21:07.857Z,7.65
2022-08-26T04:23:47.433Z,5.32
2022-08-26T04:26:15.176Z,6.07
2022-08-26T04:28:41.826Z,5.75
2022-08-26T04:31:12.374Z,5.15
2022-08-26T04:33:41.702Z,7.40
2022-08-26T04:36:08.669Z,8.43
2022-08-26T04:38:35.340Z,7.47
2022-08-26T04:41:03.265Z,5.57
2022-08-26T04:43:32.125Z,7.12
2022-08-26T04:46:03.041Z,5.90
2022-08-26T04:48:30.074Z,4.70
2022-08-26T04:50:56.679Z,7.47
2022-08-26T04:53:23.411Z,6.70
2022-08-26T04:55:52.479Z,5.40
2022-08-26T04:58:22.217Z,9.68
2022-08-26T05:00:49.280Z,5.90
2022-08-26T05:03:17.430Z,5.45
2022-08-26T05:05:44.561Z,6.28
2022-08-26T05:08:11.431Z,9.45
2022-08-26T05:10:42.447Z,8.15
2022-08-26T05:13:12.047Z,5.57
2022-08-26T05:15:41.937Z,8.07
2022-08-26T05:18:08.854Z,17.30
2022-08-26T05:20:42.928Z,10.85
2022-08-26T05:23:09.728Z,12.07
2022-08-26T05:25:41.957Z,10.07
2022-08-26T05:28:09.603Z,10.00
2022-08-26T05:30:36.213Z,12.73
2022-08-26T05:33:03.563Z,12.57
2022-08-26T05:35:34.255Z,12.15
2022-08-26T05:38:01.495Z,13.50
2022-08-26T05:40:28.181Z,15.10
2022-08-26T05:42:54.930Z,9.43
2022-08-26T05:45:24.228Z,10.85
2022-08-26T05:47:51.284Z,15.25
2022-08-26T05:50:21.887Z,13.45
2022-08-26T05:52:49.626Z,16.42
2022-08-26T05:55:16.884Z,10.80
2022-08-26T05:57:45.280Z,11.05
2022-08-26T06:00:12.766Z,14.18
2022-08-26T06:02:39.999Z,15.05
2022-08-26T06:05:07.672Z,11.25
2022-08-26T06:07:52.833Z,11.40
2022-08-26T06:10:32.198Z,13.97
2022-08-26T06:13:03.236Z,10.57
2022-08-26T06:15:39.865Z,11.63
2022-08-26T06:18:08.908Z,12.30
2022-08-26T06:20:36.668Z,12.25
2022-08-26T06:23:22.700Z,9.57
2022-08-26T06:25:50.435Z,9.73
2022-08-26T06:28:17.498Z,14.85
2022-08-26T06:30:44.787Z,9.75
2022-08-26T06:33:11.701Z,8.45
2022-08-26T06:35:39.470Z,14.40
2022-08-26T06:38:06.381Z,13.50
2022-08-26T06:40:33.088Z,12.15
2022-08-26T06:43:00.534Z,16.00
2022-08-26T06:45:27.797Z,10.05
2022-08-26T06:47:54.446Z,15.43
2022-08-26T06:50:21.198Z,12.98
2022-08-26T06:52:49.074Z,9.65
2022-08-26T06:55:15.742Z,13.80
2022-08-26T06:57:42.353Z,13.73
2022-08-26T07:00:10.897Z,11.15
2022-08-26T07:02:37.864Z,10.27
2022-08-26T07:05:05.180Z,11.48
2022-08-26T07:07:32.096Z,12.40
2022-08-26T07:09:58.670Z,11.32
2022-08-26T07:12:26.537Z,10.27
2022-08-26T07:14:53.230Z,10.88
2022-08-26T07:17:20.545Z,9.25
2022-08-26T07:19:48.576Z,11.43
2022-08-26T07:22:16.378Z,11.15
2022-08-26T07:24:43.415Z,9.23
2022-08-26T07:27:13.930Z,10.52
2022-08-26T07:29:40.602Z,14.87
2022-08-26T07:32:07.668Z,8.75
2022-08-26T07:34:34.260Z,7.78
2022-08-26T07:37:01.147Z,12.45
2022-08-26T07:39:28.623Z,10.20
2022-08-26T07:41:58.887Z,12.80
2022-08-26T07:44:27.229Z,10.55
2022-08-26T07:46:53.898Z,10.63
2022-08-26T07:49:22.708Z,9.80
2022-08-26T07:51:50.280Z,8.23
2022-08-26T07:54:16.931Z,11.48
2022-08-26T07:56:44.582Z,10.18
2022-08-26T07:59:13.826Z,14.20
2022-08-26T08:01:41.578Z,8.43
2022-08-26T08:04:13.824Z,9.13
2022-08-26T08:06:40.646Z,14.40
2022-08-26T08:09:07.345Z,16.77
2022-08-26T08:11:33.971Z,12.43
2022-08-26T08:14:01.729Z,10.60
2022-08-26T08:16:32.090Z,7.97
2022-08-26T08:18:58.764Z,10.68
2022-08-26T08:21:25.877Z,10.15
2022-08-26T08:23:53.280Z,10.50
2022-08-26T08:26:19.972Z,10.57
2022-08-26T08:28:47.962Z,12.23
2022-08-26T08:31:56.058Z,10.20
2022-08-26T08:34:15.435Z,6.32
2022-08-26T08:36:42.056Z,8.25
2022-08-26T08:39:09.170Z,11.60
2022-08-26T08:41:49.828Z,8.20
2022-08-26T08:46:56.075Z,12.70
2022-08-26T08:49:25.915Z,9.10
2022-08-26T08:52:05.414Z,10.10
2022-08-26T08:54:35.061Z,9.63
2022-08-26T08:57:11.529Z,7.68
2022-08-26T08:59:42.116Z,8.93
2022-08-26T09:02:34.929Z,10.10
2022-08-26T09:05:23.926Z,8.07
2022-08-26T09:08:11.375Z,12.65
2022-08-26T09:10:43.838Z,7.30
2022-08-26T09:13:16.373Z,10.02
2022-08-26T09:15:59.082Z,8.32
2022-08-26T09:18:37.571Z,11.10
2022-08-26T09:21:09.300Z,13.77
2022-08-26T09:23:37.434Z,12.80
2022-08-26T09:26:19.983Z,8.52
2022-08-26T09:28:56.231Z,9.68
2022-08-26T09:31:29.483Z,9.73
2022-08-26T09:34:17.844Z,12.05
2022-08-26T09:36:49.232Z,11.77
2022-08-26T09:39:27.885Z,14.85
2022-08-26T09:42:20.772Z,12.82
2022-08-26T09:45:06.134Z,12.00
2022-08-26T09:47:48.057Z,11.10
2022-08-26T09:50:29.103Z,12.63
2022-08-26T09:53:20.962Z,10.05
2022-08-26T09:55:55.132Z,16.20
2022-08-26T09:58:47.996Z,13.82
2022-08-26T10:01:26.316Z,9.38
2022-08-26T10:03:52.956Z,11.38
2022-08-26T10:06:23.065Z,12.82
2022-08-26T10:08:55.126Z,10.10
2022-08-26T10:11:31.555Z,11.40
2022-08-26T10:14:04.832Z,12.07
2022-08-26T10:16:37.336Z,12.40
2022-08-26T10:19:06.573Z,11.75
2022-08-26T10:21:40.556Z,14.43
2022-08-26T10:24:11.330Z,10.68
2022-08-26T10:27:03.983Z,9.68
2022-08-26T10:29:42.750Z,10.80
2022-08-26T10:32:23.668Z,9.52
2022-08-26T10:34:52.074Z,13.27
2022-08-26T10:37:20.501Z,9.25
2022-08-26T10:40:01.913Z,10.32
2022-08-26T10:42:35.484Z,13.57
2022-08-26T10:45:14.956Z,13.30
2022-08-26T10:47:48.944Z,8.13
2022-08-26T10:50:18.028Z,9.27
2022-08-26T10:53:14.697Z,12.30
2022-08-26T10:58:13.876Z,9.50
2022-08-26T11:01:23.296Z,10.10
2022-08-26T11:04:48.501Z,10.93
2022-08-26T11:07:46.615Z,11.45
2022-08-26T11:10:18.961Z,12.65
2022-08-26T11:12:49.434Z,7.12
2022-08-26T11:15:26.056Z,9.80
2022-08-26T11:17:52.918Z,10.88
2022-08-26T11:20:23.785Z,9.55
2022-08-26T11:22:50.742Z,10.27
2022-08-26T11:25:18.458Z,11.07
2022-08-26T11:27:48.253Z,7.85
2022-08-26T11:30:15.788Z,8.70
2022-08-26T11:33:11.770Z,7.50
2022-08-26T11:35:38.650Z,9.13
2022-08-26T11:38:23.150Z,10.23
2022-08-26T11:41:09.543Z,9.07
2022-08-26T11:43:36.165Z,9.57
2022-08-26T11:46:09.202Z,12.40
2022-08-26T11:48:43.092Z,9.10
2022-08-26T11:51:20.506Z,8.57
2022-08-26T11:53:47.361Z,7.20
2022-08-26T11:56:33.090Z,7.55
2022-08-26T11:59:01.467Z,10.27
2022-08-26T12:01:39.901Z,10.68
2022-08-26T12:04:07.795Z,8.35
2022-08-26T12:06:45.108Z,6.87
2022-08-26T12:09:19.875Z,12.80
2022-08-26T12:11:46.976Z,10.07
2022-08-26T12:14:25.828Z,8.73
2022-08-26T12:16:54.512Z,7.85
2022-08-26T12:19:32.830Z,8.63
2022-08-26T12:22:22.521Z,8.15
2022-08-26T12:24:53.984Z,9.00
2022-08-26T12:27:31.679Z,8.35
2022-08-26T12:30:08.286Z,7.07
2022-08-26T12:32:35.559Z,6.30
2022-08-26T12:35:09.683Z,6.72
2022-08-26T12:37:39.917Z,9.43
2022-08-26T12:40:29.200Z,7.55
2022-08-26T12:42:56.851Z,8.35
2022-08-26T12:45:28.727Z,6.53
2022-08-26T12:47:58.027Z,10.52
2022-08-26T12:50:30.031Z,7.20
2022-08-26T12:53:08.665Z,7.12
2022-08-26T12:55:39.773Z,6.53
2022-08-26T12:58:25.935Z,6.10
2022-08-26T13:00:52.483Z,7.03
2022-08-26T13:03:32.673Z,7.53
2022-08-26T13:06:34.164Z,6.90
2022-08-26T13:09:09.615Z,7.45
2022-08-26T13:11:39.184Z,6.03
2022-08-26T13:14:06.878Z,6.75
2022-08-26T13:16:34.215Z,5.57
2022-08-26T13:19:02.452Z,7.32
2022-08-26T13:21:31.919Z,6.22
2022-08-26T13:24:15.892Z,7.87
2022-08-26T13:26:43.644Z,5.62
2022-08-26T13:29:10.673Z,6.62
2022-08-26T13:31:38.786Z,5.75
2022-08-26T13:34:05.444Z,8.93
2022-08-26T13:36:32.057Z,9.00
2022-08-26T13:38:58.971Z,6.22
2022-08-26T13:41:29.248Z,5.53
2022-08-26T13:43:56.861Z,6.85
2022-08-26T13:46:26.495Z,7.93
2022-08-26T13:48:54.562Z,7.65
2022-08-26T13:51:22.823Z,5.15
2022-08-26T13:53:50.034Z,7.12
2022-08-26T13:56:16.721Z,6.12
2022-08-26T13:58:43.298Z,4.70
2022-08-26T14:01:12.795Z,8.18
2022-08-26T14:03:39.505Z,6.18
2022-08-26T14:06:06.132Z,6.07
2022-08-26T14:08:32.944Z,7.00
2022-08-26T14:10:59.742Z,6.45
2022-08-26T14:13:26.430Z,6.15
2022-08-26T14:15:53.081Z,8.80
2022-08-26T14:18:22.348Z,8.60
2022-08-26T14:20:50.589Z,5.75
2022-08-26T14:23:18.980Z,5.37
2022-08-26T14:25:45.557Z,5.12
2022-08-26T14:28:12.185Z,5.90
2022-08-26T14:30:42.204Z,5.32
2022-08-26T14:33:10.945Z,6.05
2022-08-26T14:35:37.689Z,7.35
2022-08-26T14:38:04.326Z,7.47
2022-08-26T14:40:31.674Z,4.95
2022-08-26T14:43:00.610Z,6.03
2022-08-26T14:45:30.624Z,6.05
2022-08-26T14:47:57.519Z,6.30
2022-08-26T14:50:25.304Z,7.10
2022-08-26T14:53:10.387Z,5.70
2022-08-26T14:55:38.700Z,5.53
2022-08-26T14:58:05.344Z,5.22
2022-08-26T15:00:31.992Z,5.82
2022-08-26T15:02:58.838Z,6.12
2022-08-26T15:05:25.657Z,7.15
2022-08-26T15:07:52.257Z,6.10
2022-08-26T15:10:18.886Z,5.00
2022-08-26T15:12:45.591Z,5.90
2022-08-26T15:15:13.064Z,5.80
2022-08-26T15:17:39.748Z,6.03
2022-08-26T15:20:09.564Z,6.68
2022-08-26T15:22:36.938Z,6.40
2022-08-26T15:25:04.501Z,6.35
2022-08-26T15:27:31.237Z,6.75
2022-08-26T15:29:57.805Z,5.40
2022-08-26T15:32:24.392Z,5.07
2022-08-26T15:34:52.131Z,4.22
2022-08-26T15:37:18.746Z,5.80
2022-08-26T15:39:45.316Z,8.00
2022-08-26T15:42:11.906Z,5.60
2022-08-26T15:44:42.902Z,5.03
2022-08-26T15:47:09.493Z,5.20
2022-08-26T15:49:36.065Z,7.18
2022-08-26T15:52:05.326Z,5.93
2022-08-26T15:54:35.567Z,5.65
2022-08-26T15:57:02.589Z,6.72
2022-08-26T15:59:31.530Z,4.72
2022-08-26T16:02:01.831Z,5.95
2022-08-26T16:04:28.612Z,4.82
2022-08-26T16:06:55.235Z,5.00
2022-08-26T16:09:24.294Z,6.30
2022-08-26T16:11:51.218Z,5.62
2022-08-26T16:14:17.906Z,4.93
2022-08-26T16:16:44.488Z,4.95
2022-08-26T16:19:11.670Z,5.87
2022-08-26T16:21:38.666Z,4.90
2022-08-26T16:24:05.607Z,5.35
2022-08-26T16:26:33.963Z,6.12
2022-08-26T16:29:06.524Z,4.78
2022-08-26T16:31:33.220Z,5.07
2022-08-26T16:33:59.829Z,4.57
2022-08-26T16:36:26.406Z,4.87
2022-08-26T16:38:55.221Z,4.12
2022-08-26T16:41:26.147Z,5.93
2022-08-26T16:43:53.035Z,5.28
2022-08-26T16:46:22.127Z,4.55
2022-08-26T16:48:48.867Z,4.35
2022-08-26T16:51:17.209Z,4.75
2022-08-26T16:53:44.489Z,5.37
2022-08-26T16:56:19.295Z,5.03
2022-08-26T16:58:48.168Z,5.10
2022-08-26T17:01:15.603Z,5.32
2022-08-26T17:03:42.238Z,5.18
2022-08-26T17:06:09.221Z,6.43
2022-08-26T17:08:37.355Z,4.50
2022-08-26T17:11:03.935Z,6.22
2022-08-26T17:13:35.429Z,4.25
2022-08-26T17:16:04.963Z,5.10
2022-08-26T17:18:32.797Z,4.90
2022-08-26T17:21:04.270Z,4.60
2022-08-26T17:23:31.060Z,5.15
2022-08-26T17:25:57.761Z,4.53
2022-08-26T17:28:24.351Z,5.70
2022-08-26T17:30:50.980Z,5.12
2022-08-26T17:33:22.152Z,4.47
2022-08-26T17:35:51.308Z,6.93
2022-08-26T17:38:17.902Z,4.45
2022-08-26T17:40:44.485Z,5.03
2022-08-26T17:43:12.440Z,4.72
2022-08-26T17:45:40.323Z,5.25
2022-08-26T17:48:07.131Z,4.82
2022-08-26T17:50:33.740Z,4.07
2022-08-26T17:53:00.343Z,4.57
2022-08-26T17:55:27.039Z,4.68
2022-08-26T17:57:54.079Z,5.18
2022-08-26T18:00:26.407Z,4.57
2022-08-26T18:02:54.326Z,5.25
2022-08-26T18:05:21.715Z,5.00
2022-08-26T18:07:48.424Z,5.43
2022-08-26T18:10:16.507Z,4.07
2022-08-26T18:12:43.084Z,4.78
2022-08-26T18:15:10.412Z,4.62
2022-08-26T18:17:39.096Z,5.65
2022-08-26T18:20:10.048Z,5.12
2022-08-26T18:22:36.649Z,5.18
2022-08-26T18:25:04.991Z,4.15
2022-08-26T18:27:31.606Z,6.60
2022-08-26T18:29:58.210Z,6.12
2022-08-26T18:32:24.797Z,6.00
2022-08-26T18:34:51.480Z,4.47
2022-08-26T18:37:18.099Z,6.90
2022-08-26T18:39:44.679Z,4.43
2022-08-26T18:42:11.294Z,5.50
2022-08-26T18:44:37.879Z,4.10
2022-08-26T18:47:04.732Z,5.50
2022-08-26T18:49:31.329Z,4.90
2022-08-26T18:51:57.939Z,5.70
2022-08-26T18:54:24.519Z,4.60
2022-08-26T18:56:51.608Z,5.18
2022-08-26T18:59:18.342Z,4.80
2022-08-26T19:01:45.500Z,5.70
2022-08-26T19:04:15.430Z,5.85
2022-08-26T19:06:42.511Z,6.10
2022-08-26T19:09:09.968Z,5.10
2022-08-26T19:11:42.268Z,4.00
2022-08-26T19:14:13.665Z,6.72
2022-08-26T19:16:41.549Z,5.18
2022-08-26T19:19:08.144Z,4.30
2022-08-26T19:21:35.254Z,6.68
2022-08-26T19:24:02.819Z,5.95
2022-08-26T19:26:29.748Z,4.57
2022-08-26T19:28:56.420Z,5.82
2022-08-26T19:31:23.033Z,5.05
2022-08-26T19:33:49.654Z,5.55
2022-08-26T19:36:18.888Z,4.40
2022-08-26T19:38:46.101Z,4.37
2022-08-26T19:41:27.792Z,5.03
2022-08-26T19:44:08.467Z,5.03
2022-08-26T19:46:36.330Z,6.20
2022-08-26T19:49:03.010Z,4.60
2022-08-26T19:51:30.681Z,5.62
2022-08-26T19:53:58.877Z,6.37
2022-08-26T19:56:26.794Z,4.47
2022-08-26T19:58:54.403Z,5.97
2022-08-26T20:01:21.081Z,6.43
2022-08-26T20:03:47.851Z,5.62
2022-08-26T20:06:15.503Z,5.85
2022-08-26T20:08:42.394Z,3.92
2022-08-26T20:11:13.031Z,5.85
2022-08-26T20:13:39.854Z,6.85
2022-08-26T20:16:06.721Z,4.72
2022-08-26T20:18:51.867Z,4.55
2022-08-26T20:21:27.277Z,6.90
2022-08-26T20:24:10.898Z,6.47
2022-08-26T20:26:38.749Z,5.60
2022-08-26T20:29:05.852Z,5.50
2022-08-26T20:31:32.550Z,6.20
2022-08-26T20:33:59.168Z,5.95
2022-08-26T20:36:26.889Z,6.10
2022-08-26T20:38:53.580Z,5.37
2022-08-26T20:41:20.191Z,5.62
2022-08-26T20:43:47.210Z,5.95
2022-08-26T20:46:18.086Z,7.18
2022-08-26T20:48:46.566Z,6.82
2022-08-26T20:51:13.180Z,7.75
2022-08-26T20:53:39.762Z,6.93
2022-08-26T20:56:08.467Z,5.32
2022-08-26T20:58:35.070Z,5.57
2022-08-26T21:01:06.782Z,6.18
2022-08-26T21:03:34.450Z,6.97
2022-08-26T21:06:01.135Z,6.28
2022-08-26T21:08:27.705Z,6.05
2022-08-26T21:10:54.323Z,7.68
2022-08-26T21:13:20.961Z,4.75
2022-08-26T21:15:47.534Z,6.07
2022-08-26T21:18:14.106Z,5.40
2022-08-26T21:20:40.743Z,5.15
2022-08-26T21:23:07.360Z,5.03
2022-08-26T21:25:33.947Z,7.85
2022-08-26T21:28:00.542Z,5.97
2022-08-26T21:30:27.163Z,6.65
2022-08-26T21:32:53.746Z,4.95
2022-08-26T21:35:20.366Z,5.87
2022-08-26T21:37:47.490Z,5.93
2022-08-26T21:40:14.191Z,6.75
2022-08-26T21:42:40.773Z,6.28
2022-08-26T21:45:07.913Z,5.25
2022-08-26T21:47:34.515Z,6.97
2022-08-26T21:50:01.095Z,7.55
2022-08-26T21:52:27.733Z,7.72
2022-08-26T21:55:00.978Z,9.30
2022-08-26T21:57:28.050Z,7.62
2022-08-26T21:59:54.813Z,6.50
2022-08-26T22:02:21.470Z,6.60
2022-08-26T22:04:48.989Z,6.90
2022-08-26T22:07:17.359Z,5.95
2022-08-26T22:09:44.578Z,6.70
2022-08-26T22:12:11.854Z,8.02
2022-08-26T22:14:39.669Z,5.43
2022-08-26T22:17:06.421Z,5.50
2022-08-26T22:19:34.024Z,7.30
2022-08-26T22:22:05.677Z,6.97
2022-08-26T22:24:32.278Z,5.43
2022-08-26T22:26:58.915Z,5.82
2022-08-26T22:29:27.020Z,7.62
2022-08-26T22:31:53.662Z,7.15
2022-08-26T22:34:21.116Z,5.50
2022-08-26T22:36:48.261Z,5.03
2022-08-26T22:39:16.681Z,4.87
2022-08-26T22:41:43.455Z,8.10
2022-08-26T22:44:11.599Z,5.47
2022-08-26T22:46:38.600Z,7.18
2022-08-26T22:49:05.215Z,8.40
2022-08-26T22:51:32.128Z,8.82
2022-08-26T22:53:58.815Z,6.50
2022-08-26T22:56:25.458Z,5.65
2022-08-26T22:58:52.029Z,5.25
2022-08-26T23:01:18.658Z,6.87
2022-08-26T23:03:45.956Z,7.25
2022-08-26T23:06:12.657Z,7.03
2022-08-26T23:08:39.348Z,7.60
2022-08-26T23:11:11.768Z,6.55
2022-08-26T23:13:38.577Z,5.15
2022-08-26T23:16:07.190Z,6.43
2022-08-26T23:18:33.841Z,5.03
2022-08-26T23:21:00.427Z,8.68
2022-08-26T23:23:27.662Z,8.45
2022-08-26T23:25:55.194Z,6.55
2022-08-26T23:28:22.031Z,6.53
2022-08-26T23:30:48.736Z,7.72
2022-08-26T23:33:15.360Z,8.20
2022-08-26T23:35:41.957Z,6.90
2022-08-26T23:38:09.910Z,5.30
2022-08-26T23:40:38.614Z,6.68
2022-08-26T23:43:06.756Z,4.68
2022-08-26T23:45:33.554Z,6.32
2022-08-26T23:48:00.227Z,8.18
2022-08-26T23:50:46.600Z,5.15
2022-08-26T23:53:19.329Z,7.60
2022-08-26T23:55:48.222Z,7.47
2022-08-26T23:58:16.053Z,6.97
